, TX

(GMT )
Ingleside

Weather History for KTFP - February, 2013

Change the Weather History Date:

Friday, February 8, 2013

  Actual Average Record
Temperature  
Mean Temperature 66 °F -  
Max Temperature 73 °F - - ()
Min Temperature 58 °F - - ()
Growing Degree Days 16 (Base 50)    
Moisture  
Dew Point 55 °F    
Average Humidity 75    
Maximum Humidity 96    
Minimum Humidity 40    
Precipitation  
Precipitation 0.01 in - - ()
Sea Level Pressure  
Sea Level Pressure 30.10 in    
Wind  
Wind Speed 8 mph (NE)    
Max Wind Speed 17 mph    
Max Gust Speed 23 mph    
Visibility 9 miles    
Events Fog    
Averages and records for this station are not official NWS values.
T = Trace of Precipitation, MM = Missing Value Source: NWS Daily Summary

Daily Weather History Graph

Daily Weather History Graph

Search for Another Location

Airport or City:

Trip Planner

Search our weather history database for the weather conditions in past years. The results will help you decide how hot, cold, wet, or windy it might be!

Date:

Astronomy

Feb. 08, 2013 Rise Set
Actual Time 7:11 AM CST 6:15 PM CST
Civil Twilight 6:47 AM CST 6:39 PM CST
Nautical Twilight 6:19 AM CST 7:07 PM CST
Astronomical Twilight 5:51 AM CST 7:34 PM CST
Moon 5:37 AM CST (2/8) 4:52 PM CST (2/8)
Length of Visible Light 11h 52m
Length of Day
11h 03m
Waning Crescent, 3% of the Moon is Illuminated
Feb 8
Waning Crescent
Feb 10
New
Feb 17
First Quarter
Feb 25
Full
Mar 4
Last Quarter

Hourly Weather History & Observations

Time (CST) Temp. Dew Point Humidity Pressure Visibility Wind Dir Wind Speed Gust Speed Precip Events Conditions
12:15 AM 62.1 °F 61.0 °F 96% 30.00 in 0.2 mi Calm Calm - N/A Fog Fog
12:35 AM 62.1 °F 61.0 °F 96% 30.00 in 0.2 mi Calm Calm - N/A Fog Fog
12:55 AM 61.9 °F 60.8 °F 96% 30.01 in 0.5 mi Calm Calm - N/A Fog Fog
1:15 AM 61.5 °F 60.4 °F 96% 30.02 in 0.2 mi NNW 4.6 mph - N/A Fog Fog
1:35 AM 61.7 °F 60.4 °F 96% 30.02 in 0.5 mi NNW 3.5 mph - N/A Fog Fog
1:55 AM 61.9 °F 60.6 °F 96% 30.03 in 0.5 mi North 4.6 mph - N/A Fog Fog
2:15 AM 62.4 °F 61.3 °F 96% 30.03 in 0.2 mi NNW 4.6 mph - N/A Fog Fog
2:35 AM 63.0 °F 61.9 °F 96% 30.03 in 0.2 mi NNW 9.2 mph - 0.01 in Fog Fog
2:55 AM 63.7 °F 62.6 °F 96% 30.03 in 0.8 mi NNW 10.4 mph - 0.01 in   Overcast
3:35 AM 63.5 °F 62.4 °F 96% 30.05 in 10.0 mi NNE 11.5 mph 16.1 mph N/A   Scattered Clouds
3:55 AM 62.8 °F 61.5 °F 96% 30.05 in 10.0 mi NNE 12.7 mph - N/A   Clear
4:15 AM 62.6 °F 60.4 °F 93% 30.05 in 10.0 mi North 12.7 mph 19.6 mph N/A   Clear
4:35 AM 62.6 °F 59.9 °F 91% 30.06 in 10.0 mi NNE 10.4 mph - N/A   Clear
5:15 AM 62.4 °F 58.3 °F 86% 30.08 in 10.0 mi North 16.1 mph 23.0 mph N/A   Clear
5:35 AM 61.7 °F 55.9 °F 81% 30.09 in 10.0 mi North 15.0 mph - N/A   Clear
6:15 AM 60.4 °F 54.3 °F 80% 30.12 in 10.0 mi North 13.8 mph 20.7 mph N/A   Clear
6:35 AM 59.9 °F 54.3 °F 82% 30.12 in 10.0 mi North 12.7 mph 17.3 mph N/A   Clear
6:55 AM 59.4 °F 54.0 °F 82% 30.13 in 10.0 mi NNE 16.1 mph 20.7 mph N/A   Clear
7:15 AM 59.0 °F 52.9 °F 80% 30.14 in 10.0 mi NNE 17.3 mph 21.9 mph N/A   Clear
7:35 AM 58.6 °F 52.3 °F 80% 30.15 in 10.0 mi NNE 16.1 mph 20.7 mph N/A   Clear
7:55 AM 58.5 °F 52.3 °F 80% 30.15 in 10.0 mi NNE 17.3 mph - N/A   Clear
8:15 AM 58.3 °F 52.3 °F 81% 30.16 in 10.0 mi NNE 17.3 mph 20.7 mph N/A   Clear
8:35 AM 59.2 °F 52.3 °F 78% 30.17 in 10.0 mi NNE 15.0 mph 21.9 mph N/A   Clear
8:55 AM 59.5 °F 52.2 °F 77% 30.18 in 10.0 mi NNE 11.5 mph - N/A   Clear
9:15 AM 59.5 °F 51.8 °F 76% 30.18 in 10.0 mi NNE 16.1 mph - N/A   Clear
9:35 AM 60.1 °F 52.0 °F 75% 30.18 in 10.0 mi NNE 15.0 mph 20.7 mph N/A   Clear
9:55 AM 60.3 °F 52.0 °F 74% 30.18 in 10.0 mi NNE 12.7 mph - N/A   Clear
10:15 AM 61.0 °F 52.2 °F 73% 30.20 in 10.0 mi NNE 12.7 mph - N/A   Clear
10:35 AM 62.2 °F 52.5 °F 70% 30.20 in 10.0 mi NNE 10.4 mph - N/A   Clear
10:55 AM 64.4 °F 52.5 °F 65% 30.19 in 10.0 mi NNE 15.0 mph 19.6 mph N/A   Clear
11:15 AM 65.5 °F 52.3 °F 62% 30.19 in 10.0 mi NNE 13.8 mph - N/A   Clear
11:35 AM 65.7 °F 51.8 °F 61% 30.18 in 10.0 mi NNE 15.0 mph 19.6 mph N/A   Clear
11:55 AM 66.7 °F 51.6 °F 58% 30.16 in 10.0 mi NNE 13.8 mph 20.7 mph N/A   Clear
12:15 PM 67.1 °F 51.6 °F 57% 30.15 in 10.0 mi NNE 12.7 mph - N/A   Clear
12:35 PM 67.8 °F 51.6 °F 56% 30.15 in 10.0 mi NNE 15.0 mph - N/A   Clear
12:55 PM 69.3 °F 51.4 °F 53% 30.14 in 10.0 mi NNE 15.0 mph - N/A   Clear
1:15 PM 70.3 °F 51.4 °F 51% 30.14 in 10.0 mi NNE 13.8 mph - N/A   Clear
1:35 PM 70.9 °F 51.6 °F 50% 30.13 in 10.0 mi NNE 11.5 mph 16.1 mph N/A   Clear
1:55 PM 71.4 °F 51.1 °F 49% 30.12 in 10.0 mi NNE 10.4 mph - N/A   Clear
2:15 PM 71.8 °F 50.5 °F 47% 30.11 in 10.0 mi NNE 8.1 mph - N/A   Clear
2:35 PM 72.3 °F 49.6 °F 45% 30.11 in 10.0 mi NNE 10.4 mph - N/A   Clear
2:55 PM 72.9 °F 48.6 °F 42% 30.10 in 10.0 mi NNE 10.4 mph - N/A   Clear
3:15 PM 73.2 °F 47.8 °F 41% 30.10 in 10.0 mi North 9.2 mph - N/A   Clear
3:35 PM 73.8 °F 48.0 °F 40% 30.09 in 10.0 mi NE 9.2 mph - N/A   Clear
3:55 PM 73.9 °F 48.2 °F 40% 30.08 in 10.0 mi ENE 3.5 mph - N/A   Clear
4:15 PM 73.2 °F 50.2 °F 44% 30.08 in 10.0 mi ESE 9.2 mph - N/A   Clear
4:35 PM 72.7 °F 50.5 °F 46% 30.09 in 10.0 mi East 10.4 mph - N/A   Scattered Clouds
4:55 PM 72.7 °F 50.0 °F 45% 30.08 in 10.0 mi East 10.4 mph - N/A   Clear
5:35 PM 70.5 °F 53.2 °F 54% 30.09 in 10.0 mi East 9.2 mph - N/A   Clear
5:55 PM 69.3 °F 54.7 °F 60% 30.09 in 10.0 mi East 6.9 mph - N/A   Scattered Clouds
6:15 PM 67.1 °F 55.6 °F 66% 30.09 in 10.0 mi ESE 5.8 mph - N/A   Clear
6:35 PM 64.0 °F 56.5 °F 76% 30.09 in 10.0 mi ESE 6.9 mph - N/A   Clear
6:55 PM 62.2 °F 56.3 °F 81% 30.09 in 10.0 mi East 4.6 mph - N/A   Clear
7:15 PM 61.3 °F 56.1 °F 83% 30.09 in 10.0 mi ESE 5.8 mph - N/A   Clear
7:35 PM 60.3 °F 55.6 °F 85% 30.09 in 10.0 mi East 5.8 mph - N/A   Scattered Clouds
7:55 PM 60.6 °F 56.1 °F 85% 30.10 in 10.0 mi East 4.6 mph - N/A   Mostly Cloudy
8:15 PM 60.4 °F 56.3 °F 86% 30.10 in 10.0 mi ESE 5.8 mph - N/A   Scattered Clouds
8:35 PM 60.3 °F 56.3 °F 87% 30.10 in 10.0 mi ESE 5.8 mph - N/A   Clear
8:55 PM 60.1 °F 56.5 °F 88% 30.10 in 10.0 mi ESE 4.6 mph - N/A   Clear
9:15 PM 60.1 °F 57.0 °F 90% 30.10 in 10.0 mi East 5.8 mph - N/A   Clear
9:35 PM 60.1 °F 57.4 °F 91% 30.10 in 10.0 mi East 3.5 mph - N/A   Clear
9:55 PM 60.8 °F 58.1 °F 91% 30.09 in 10.0 mi ESE 9.2 mph - N/A   Clear
10:15 PM 61.5 °F 58.8 °F 91% 30.09 in 10.0 mi ESE 9.2 mph - N/A   Clear
10:35 PM 61.9 °F 59.2 °F 91% 30.09 in 10.0 mi ESE 9.2 mph - N/A   Clear
10:55 PM 62.1 °F 59.2 °F 90% 30.09 in 10.0 mi East 8.1 mph - N/A   Clear
11:35 PM 62.2 °F 59.4 °F 90% 30.08 in 10.0 mi East 9.2 mph - N/A   Clear
11:55 PM 62.1 °F 59.2 °F 90% 30.07 in 10.0 mi East 9.2 mph - N/A   Clear